KSPW/SPW METAR and TAF weather

Enter ICAO airport designator
Station Type Date Time Source
KSPW METAR 2019/10/15 02:53 UTC NOAA

KSPW 150253Z AUTO 10008KT 10SM CLR 08/03 A2981 RMK AO2 SLP101 T00780028 50001


Station Type Date Time Source
KSPW Decoded METAR 2019/10/15 02:53 UTC NOAA

SPENCER MUNICIPAL AIRPORT, IA, United States (KSPW) 43-10N 95-13W 403M
Oct 14, 2019 - 10:53 PM EDT / 2019.10.15 0253 UTC
Wind: from the E (100 degrees) at 9 MPH (8 KT):0
Visibility: 10 mile(s):0
Sky conditions: clear
Temperature: 46.0 F (7.8 C)
Dew Point: 37.0 F (2.8 C)
Relative Humidity: 70%
Pressure (altimeter): 29.81 in. Hg (1009 hPa)
Pressure tendency: 0.00 inches (0.1 hPa) higher than three hours ago
ob: KSPW 150253Z AUTO 10008KT 10SM CLR 08/03 A2981 RMK AO2 SLP101 T00780028 50001
cycle: 3

Station Type Date Time Source
KSPW TAF UTC NOAA

Error!

Example: see airport list